Terminal Aerodrome Forecast
Issued by NWS

Home | Current Version | Previous Version | Graphics & Text | Print | Product List | Glossary On
Versions: 1 2 3 4 5 6 7 8 9 10 11 12 13 14 15 16 17 18 19 20 21
000
FTUS43 KOAX 162320
TAFCDR
TAF
KCDR 162320Z 1700/1724 05012KT P6SM BKN024
     FM170300 02007KT 3SM -SN BR OVC007
     FM171000 VRB03KT 1SM BR OVC003
     FM171200 VRB02KT 1/2SM FZFG VV002
     FM171800 22008KT 2SM BR BKN005 OVC020
     FM172000 22010KT P6SM SCT020 BKN100=

USA.gov is the U.S. government's official web portal to all federal, state and local government web resources and services.